createdAt,value
2023-01-07T00:01:35.393Z,101389.19
2023-01-07T00:04:06.461Z,101393.97
2023-01-07T00:06:37.636Z,101399.25
2023-01-07T00:09:07.472Z,101399.03
2023-01-07T00:11:37.886Z,101394.31
2023-01-07T00:14:09.332Z,101389.91
2023-01-07T00:16:40.090Z,101382.94
2023-01-07T00:19:09.612Z,101376.66
2023-01-07T00:21:40.012Z,101374.00
2023-01-07T00:24:10.951Z,101377.22
2023-01-07T00:26:39.489Z,101376.13
2023-01-07T00:29:08.274Z,101375.59
2023-01-07T00:31:37.954Z,101383.34
2023-01-07T00:34:09.720Z,101376.66
2023-01-07T00:36:41.934Z,101371.03
2023-01-07T00:39:13.615Z,101379.53
2023-01-07T00:42:01.825Z,101390.44
2023-01-07T00:44:31.462Z,101387.84
2023-01-07T00:47:00.662Z,101384.91
2023-01-07T00:49:35.631Z,101385.31
2023-01-07T00:52:05.966Z,101388.06
2023-01-07T00:54:34.074Z,101392.13
2023-01-07T00:57:02.846Z,101384.41
2023-01-07T00:59:31.687Z,101388.59
2023-01-07T01:02:02.324Z,101389.16
2023-01-07T01:04:30.889Z,101390.28
2023-01-07T01:06:58.947Z,101384.06
2023-01-07T01:09:29.519Z,101395.59
2023-01-07T01:11:57.553Z,101385.97
2023-01-07T01:14:25.830Z,101389.59
2023-01-07T01:16:53.811Z,101381.69
2023-01-07T01:19:22.353Z,101384.75
2023-01-07T01:21:50.879Z,101385.94
2023-01-07T01:24:21.173Z,101398.72
2023-01-07T01:26:50.870Z,101395.88
2023-01-07T01:29:19.210Z,101402.75
2023-01-07T01:31:48.782Z,101391.84
2023-01-07T01:34:16.956Z,101392.13
2023-01-07T01:36:45.482Z,101389.59
2023-01-07T01:39:13.818Z,101392.97
2023-01-07T01:41:42.365Z,101379.59
2023-01-07T01:44:40.228Z,101387.41
2023-01-07T01:47:17.062Z,101384.34
2023-01-07T01:49:49.141Z,101385.75
2023-01-07T01:52:19.256Z,101383.16
2023-01-07T01:54:50.359Z,101378.31
2023-01-07T01:57:21.841Z,101378.00
2023-01-07T01:59:56.851Z,101373.50
2023-01-07T02:02:30.860Z,101371.81
2023-01-07T02:05:01.051Z,101367.75
2023-01-07T02:07:30.556Z,101371.16
2023-01-07T02:10:02.276Z,101369.91
2023-01-07T02:12:44.652Z,101366.72
2023-01-07T02:15:16.693Z,101368.59
2023-01-07T02:17:57.651Z,101365.00
2023-01-07T02:20:39.281Z,101365.34
2023-01-07T02:23:29.109Z,101365.69
2023-01-07T02:26:16.773Z,101365.03
2023-01-07T02:29:30.731Z,101370.84
2023-01-07T02:32:09.851Z,101362.50
2023-01-07T02:34:46.463Z,101352.78
2023-01-07T02:37:20.461Z,101361.28
2023-01-07T02:39:56.823Z,101346.50
2023-01-07T02:42:29.332Z,101344.91
2023-01-07T02:45:02.323Z,101333.72
2023-01-07T02:47:37.830Z,101341.00
2023-01-07T02:50:07.185Z,101346.41
2023-01-07T02:52:37.512Z,101349.28
2023-01-07T02:55:08.183Z,101340.63
2023-01-07T02:58:24.976Z,101337.25
2023-01-07T03:01:03.307Z,101335.34
2023-01-07T03:03:54.808Z,101341.22
2023-01-07T03:06:36.037Z,101345.44
2023-01-07T03:09:10.750Z,101334.66
2023-01-07T03:11:43.797Z,101334.66
2023-01-07T03:14:17.266Z,101336.56
2023-01-07T03:16:52.445Z,101328.03
2023-01-07T03:19:26.315Z,101339.34
2023-01-07T03:21:57.132Z,101335.13
2023-01-07T03:24:27.138Z,101334.66
2023-01-07T03:26:58.002Z,101338.56
2023-01-07T03:29:26.784Z,101340.16
2023-01-07T03:32:00.125Z,101345.88
2023-01-07T03:34:31.130Z,101339.06
2023-01-07T03:37:04.310Z,101339.19
2023-01-07T03:39:34.518Z,101337.56
2023-01-07T03:42:26.159Z,101339.53
2023-01-07T03:44:54.281Z,101336.25
2023-01-07T03:47:25.543Z,101327.72
2023-01-07T03:49:55.222Z,101332.28
2023-01-07T03:52:24.931Z,101334.75
2023-01-07T03:54:53.488Z,101339.16
2023-01-07T03:57:21.901Z,101327.72
2023-01-07T03:59:51.837Z,101324.13
2023-01-07T04:02:22.073Z,101323.63
2023-01-07T04:04:51.125Z,101306.41
2023-01-07T04:07:21.839Z,101289.94
2023-01-07T04:09:51.861Z,101296.66
2023-01-07T04:12:20.350Z,101300.38
2023-01-07T04:14:51.069Z,101301.44
2023-01-07T04:17:19.162Z,101297.66
2023-01-07T04:19:49.346Z,101305.47
2023-01-07T04:22:19.619Z,101293.00
2023-01-07T04:24:51.232Z,101298.22
2023-01-07T04:27:20.748Z,101287.13
2023-01-07T04:29:52.734Z,101291.56
2023-01-07T04:32:21.848Z,101286.00
2023-01-07T04:34:51.086Z,101289.06
2023-01-07T04:37:20.451Z,101285.09
2023-01-07T04:39:50.139Z,101283.41
2023-01-07T04:42:18.249Z,101284.88
2023-01-07T04:44:46.858Z,101282.94
2023-01-07T04:47:16.056Z,101289.84
2023-01-07T04:49:44.237Z,101292.31
2023-01-07T04:52:12.879Z,101284.25
2023-01-07T04:54:41.234Z,101281.19
2023-01-07T04:57:10.880Z,101283.09
2023-01-07T04:59:39.235Z,101282.53
2023-01-07T05:02:08.036Z,101284.22
2023-01-07T05:04:36.490Z,101280.13
2023-01-07T05:07:04.782Z,101287.09
2023-01-07T05:09:35.173Z,101287.47
2023-01-07T05:12:03.989Z,101286.69
2023-01-07T05:14:33.817Z,101285.63
2023-01-07T05:17:02.600Z,101286.69
2023-01-07T05:19:32.335Z,101287.44
2023-01-07T05:22:01.093Z,101284.66
2023-01-07T05:24:38.637Z,101279.72
2023-01-07T05:27:07.121Z,101272.38
2023-01-07T05:29:39.344Z,101278.88
2023-01-07T05:32:09.110Z,101278.72
2023-01-07T05:34:40.241Z,101278.59
2023-01-07T05:37:09.399Z,101275.03
2023-01-07T05:39:38.587Z,101276.59
2023-01-07T05:42:07.959Z,101268.56
2023-01-07T05:44:38.349Z,101260.50
2023-01-07T05:47:06.545Z,101269.03
2023-01-07T05:49:34.557Z,101271.22
2023-01-07T05:52:04.171Z,101268.81
2023-01-07T05:54:32.484Z,101271.22
2023-01-07T05:57:00.675Z,101269.41
2023-01-07T05:59:28.811Z,101277.25
2023-01-07T06:01:58.372Z,101265.38
2023-01-07T06:04:26.812Z,101274.16
2023-01-07T06:06:55.459Z,101271.28
2023-01-07T06:09:24.956Z,101281.00
2023-01-07T06:11:53.078Z,101275.00
2023-01-07T06:14:22.304Z,101272.13
2023-01-07T06:16:51.726Z,101268.28
2023-01-07T06:19:23.771Z,101273.19
2023-01-07T06:21:52.296Z,101274.66
2023-01-07T06:24:21.395Z,101273.19
2023-01-07T06:26:50.491Z,101278.25
2023-01-07T06:29:19.460Z,101274.66
2023-01-07T06:31:47.493Z,101287.84
2023-01-07T06:34:15.752Z,101278.00
2023-01-07T06:36:47.253Z,101274.66
2023-01-07T06:39:16.836Z,101276.31
2023-01-07T06:41:47.585Z,101283.28
2023-01-07T06:44:16.606Z,101284.97
2023-01-07T06:46:46.203Z,101284.97
2023-01-07T06:49:14.368Z,101283.06
2023-01-07T06:51:42.344Z,101282.56
2023-01-07T06:54:13.275Z,101276.56
2023-01-07T06:56:42.097Z,101271.03
2023-01-07T06:59:12.174Z,101272.97
2023-01-07T07:01:41.728Z,101270.66
2023-01-07T07:04:09.779Z,101279.94
2023-01-07T07:06:39.389Z,101268.97
2023-01-07T07:09:08.002Z,101280.03
2023-01-07T07:11:37.567Z,101279.19
2023-01-07T07:14:06.285Z,101281.00
2023-01-07T07:16:34.200Z,101279.81
2023-01-07T07:19:02.718Z,101283.81
2023-01-07T07:21:30.870Z,101285.09
2023-01-07T07:24:00.585Z,101284.38
2023-01-07T07:26:29.255Z,101287.75
2023-01-07T07:28:59.001Z,101284.53
2023-01-07T07:31:30.888Z,101289.34
2023-01-07T07:33:58.903Z,101280.69
2023-01-07T07:36:28.242Z,101283.00
2023-01-07T07:38:56.636Z,101289.13
2023-01-07T07:41:25.065Z,101287.19
2023-01-07T07:43:54.335Z,101290.47
2023-01-07T07:46:24.537Z,101297.47
2023-01-07T07:48:53.101Z,101300.09
2023-01-07T07:51:21.446Z,101299.97
2023-01-07T07:53:49.614Z,101300.22
2023-01-07T07:56:17.664Z,101301.31
2023-01-07T07:58:45.771Z,101293.38
2023-01-07T08:01:17.575Z,101289.41
2023-01-07T08:03:51.749Z,101295.78
2023-01-07T08:06:20.340Z,101294.13
2023-01-07T08:08:49.519Z,101301.22
2023-01-07T08:11:22.131Z,101292.81
2023-01-07T08:13:50.302Z,101289.09
2023-01-07T08:16:18.334Z,101298.97
2023-01-07T08:18:50.201Z,101292.84
2023-01-07T08:21:21.571Z,101287.78
2023-01-07T08:23:49.605Z,101287.09
2023-01-07T08:26:17.689Z,101282.88
2023-01-07T08:28:46.869Z,101287.56
2023-01-07T08:31:16.374Z,101278.66
2023-01-07T08:33:46.181Z,101272.28
2023-01-07T08:36:22.662Z,101269.75
2023-01-07T08:38:53.940Z,101280.72
2023-01-07T08:41:22.371Z,101278.41
2023-01-07T08:43:50.726Z,101280.22
2023-01-07T08:46:19.799Z,101277.94
2023-01-07T08:48:49.483Z,101270.47
2023-01-07T08:51:19.275Z,101275.53
2023-01-07T08:53:48.931Z,101271.41
2023-01-07T08:56:21.007Z,101268.25
2023-01-07T08:58:49.574Z,101260.47
2023-01-07T09:01:19.635Z,101265.88
2023-01-07T09:03:48.672Z,101262.84
2023-01-07T09:06:20.060Z,101262.63
2023-01-07T09:08:48.077Z,101268.97
2023-01-07T09:11:17.166Z,101258.63
2023-01-07T09:13:46.259Z,101265.88
2023-01-07T09:16:14.658Z,101272.00
2023-01-07T09:18:43.291Z,101263.94
2023-01-07T09:21:11.715Z,101268.72
2023-01-07T09:23:41.461Z,101272.72
2023-01-07T09:26:09.636Z,101269.81
2023-01-07T09:28:38.965Z,101271.88
2023-01-07T09:31:08.699Z,101261.06
2023-01-07T09:33:37.536Z,101266.38
2023-01-07T09:36:06.195Z,101260.06
2023-01-07T09:38:35.458Z,101269.81
2023-01-07T09:41:05.528Z,101267.66
2023-01-07T09:44:01.183Z,101272.88
2023-01-07T09:46:27.687Z,101264.78
2023-01-07T09:48:59.957Z,101265.47
2023-01-07T09:51:32.527Z,101264.16
2023-01-07T09:54:03.029Z,101261.88
2023-01-07T09:56:35.097Z,101259.22
2023-01-07T09:59:05.839Z,101252.56
2023-01-07T10:01:40.279Z,101256.50
2023-01-07T10:04:24.481Z,101256.84
2023-01-07T10:06:58.810Z,101255.41
2023-01-07T10:09:36.039Z,101245.91
2023-01-07T10:12:16.847Z,101252.31
2023-01-07T10:15:01.960Z,101245.72
2023-01-07T10:17:40.096Z,101249.19
2023-01-07T10:20:13.736Z,101241.94
2023-01-07T10:22:47.456Z,101240.78
2023-01-07T10:25:21.457Z,101230.03
2023-01-07T10:27:51.303Z,101230.88
2023-01-07T10:30:25.214Z,101223.94
2023-01-07T10:33:00.189Z,101216.00
2023-01-07T10:35:30.568Z,101218.38
2023-01-07T10:38:04.530Z,101208.97
2023-01-07T10:40:37.842Z,101212.59
2023-01-07T10:43:13.282Z,101206.25
2023-01-07T10:45:58.383Z,101201.38
2023-01-07T10:48:36.269Z,101209.94
2023-01-07T10:51:14.350Z,101202.66
2023-01-07T10:53:52.006Z,101198.78
2023-01-07T10:56:29.540Z,101191.00
2023-01-07T10:58:59.373Z,101189.09
2023-01-07T11:01:30.331Z,101187.97
2023-01-07T11:04:02.179Z,101177.00
2023-01-07T11:06:39.109Z,101178.50
2023-01-07T11:09:11.120Z,101170.53
2023-01-07T11:11:39.579Z,101170.28
2023-01-07T11:14:14.153Z,101166.31
2023-01-07T11:16:44.933Z,101159.59
2023-01-07T11:19:16.621Z,101164.09
2023-01-07T11:21:48.676Z,101150.53
2023-01-07T11:24:34.298Z,101153.72
2023-01-07T11:27:04.572Z,101147.59
2023-01-07T11:29:39.573Z,101143.81
2023-01-07T11:32:14.535Z,101146.91
2023-01-07T11:34:51.940Z,101140.59
2023-01-07T11:37:32.897Z,101146.03
2023-01-07T11:40:02.747Z,101141.84
2023-01-07T11:42:42.935Z,101145.78
2023-01-07T11:45:17.301Z,101142.69
2023-01-07T11:47:51.523Z,101148.88
2023-01-07T11:50:25.561Z,101145.78
2023-01-07T11:52:58.748Z,101142.19
2023-01-07T11:55:27.715Z,101137.00
2023-01-07T11:58:28.729Z,101133.06
2023-01-07T12:01:03.987Z,101132.81
2023-01-07T12:03:32.158Z,101126.22
2023-01-07T12:06:11.472Z,101121.59
2023-01-07T12:08:42.465Z,101122.94
2023-01-07T12:11:14.407Z,101117.72
2023-01-07T12:13:46.296Z,101118.50
2023-01-07T12:16:17.652Z,101118.19
2023-01-07T12:19:06.239Z,101105.53
2023-01-07T12:21:37.425Z,101103.16
2023-01-07T12:24:16.520Z,101107.84
2023-01-07T12:26:49.857Z,101108.91
2023-01-07T12:29:25.999Z,101101.38
2023-01-07T12:32:06.533Z,101099.25
2023-01-07T12:34:42.027Z,101100.69
2023-01-07T12:37:14.963Z,101097.47
2023-01-07T12:39:46.476Z,101102.97
2023-01-07T12:42:18.941Z,101099.34
2023-01-07T12:44:51.230Z,101088.44
2023-01-07T12:47:30.715Z,101086.22
2023-01-07T12:50:04.873Z,101084.41
2023-01-07T12:52:42.162Z,101082.84
2023-01-07T12:55:20.909Z,101081.47
2023-01-07T12:58:01.279Z,101082.56
2023-01-07T13:00:34.951Z,101077.53
2023-01-07T13:03:12.021Z,101070.50
2023-01-07T13:05:43.822Z,101067.31
2023-01-07T13:08:19.506Z,101068.44
2023-01-07T13:10:51.712Z,101060.47
2023-01-07T13:13:36.834Z,101055.59
2023-01-07T13:16:06.063Z,101056.81
2023-01-07T13:18:35.889Z,101055.44
2023-01-07T13:21:07.807Z,101055.69
2023-01-07T13:24:02.831Z,101047.31
2023-01-07T13:26:35.939Z,101044.81
2023-01-07T13:29:15.750Z,101052.09
2023-01-07T13:32:14.512Z,101037.53
2023-01-07T13:34:55.824Z,101030.28
2023-01-07T13:37:37.140Z,101031.69
2023-01-07T13:40:20.986Z,101031.38
2023-01-07T13:42:53.678Z,101022.16
2023-01-07T13:45:24.662Z,101028.03
2023-01-07T13:47:56.896Z,101020.94
2023-01-07T13:50:32.976Z,101025.25
2023-01-07T13:53:04.195Z,101022.84
2023-01-07T13:55:36.995Z,101021.31
2023-01-07T13:58:36.963Z,101009.03
2023-01-07T14:01:06.930Z,101006.50
2023-01-07T14:03:45.057Z,101009.31
2023-01-07T14:06:46.547Z,101005.53
2023-01-07T14:09:36.142Z,101002.22
2023-01-07T14:12:35.203Z,101001.38
2023-01-07T14:15:38.353Z,101000.09
2023-01-07T14:18:25.163Z,101004.44
2023-01-07T14:21:01.728Z,100992.84
2023-01-07T14:23:40.224Z,100995.06
2023-01-07T14:26:19.775Z,100995.34
2023-01-07T14:29:24.306Z,100991.16
2023-01-07T14:31:53.721Z,100989.63
2023-01-07T14:34:24.895Z,100988.34
2023-01-07T14:37:15.563Z,100990.31
2023-01-07T14:39:46.916Z,100985.97
2023-01-07T14:42:48.421Z,100983.59
2023-01-07T14:45:54.378Z,100981.78
2023-01-07T14:48:36.552Z,100976.78
2023-01-07T14:51:29.299Z,100983.44
2023-01-07T14:54:30.472Z,100978.13
2023-01-07T14:57:12.403Z,100982.47
2023-01-07T15:00:13.843Z,100974.66
2023-01-07T15:03:09.084Z,100978.00
2023-01-07T15:06:00.343Z,100975.31
2023-01-07T15:08:48.485Z,100969.03
2023-01-07T15:11:41.008Z,100974.84
2023-01-07T15:14:36.474Z,100967.59
2023-01-07T15:17:04.898Z,100978.59
2023-01-07T15:19:38.562Z,100980.00
2023-01-07T15:22:15.266Z,100983.22
2023-01-07T15:24:48.902Z,100983.22
2023-01-07T15:27:23.463Z,100980.69
2023-01-07T15:29:57.367Z,100974.41
2023-01-07T15:32:34.200Z,100969.97
2023-01-07T15:35:10.155Z,100969.41
2023-01-07T15:37:38.608Z,100969.53
2023-01-07T15:40:17.896Z,100972.47
2023-01-07T15:42:47.805Z,100969.97
2023-01-07T15:45:21.089Z,100972.34
2023-01-07T15:47:50.940Z,100967.03
2023-01-07T15:50:34.832Z,100966.75
2023-01-07T15:53:17.864Z,100964.09
2023-01-07T15:55:53.207Z,100968.72
2023-01-07T15:58:24.432Z,100961.06
2023-01-07T16:00:55.152Z,100964.13
2023-01-07T16:03:23.865Z,100975.44
2023-01-07T16:05:53.332Z,100961.50
2023-01-07T16:08:24.365Z,100958.84
2023-01-07T16:10:59.856Z,100964.28
2023-01-07T16:13:29.084Z,100954.78
2023-01-07T16:16:03.149Z,100960.09
2023-01-07T16:18:33.435Z,100954.50
2023-01-07T16:21:07.712Z,100958.03
2023-01-07T16:23:38.460Z,100959.81
2023-01-07T16:26:08.298Z,100964.84
2023-01-07T16:28:40.148Z,100956.19
2023-01-07T16:31:12.748Z,100944.19
2023-01-07T16:33:42.276Z,100937.78
2023-01-07T16:36:14.471Z,100945.19
2023-01-07T16:38:43.137Z,100948.66
2023-01-07T16:41:20.737Z,100942.38
2023-01-07T16:43:56.017Z,100939.72
2023-01-07T16:46:27.498Z,100934.69
2023-01-07T16:49:20.812Z,100931.09
2023-01-07T16:51:51.633Z,100935.00
2023-01-07T16:54:32.039Z,100934.16
2023-01-07T16:57:01.782Z,100926.19
2023-01-07T16:59:32.365Z,100929.69
2023-01-07T17:02:12.999Z,100929.09
2023-01-07T17:04:41.722Z,100926.59
2023-01-07T17:07:19.613Z,100925.63
2023-01-07T17:09:47.831Z,100920.75
2023-01-07T17:12:29.225Z,100914.88
2023-01-07T17:14:57.473Z,100918.38
2023-01-07T17:17:40.052Z,100907.34
2023-01-07T17:20:19.070Z,100897.56
2023-01-07T17:22:49.643Z,100903.41
2023-01-07T17:25:25.647Z,100899.78
2023-01-07T17:27:58.064Z,100899.78
2023-01-07T17:30:31.608Z,100894.75
2023-01-07T17:33:01.205Z,100888.47
2023-01-07T17:35:29.257Z,100894.63
2023-01-07T17:37:57.785Z,100886.94
2023-01-07T17:40:28.005Z,100884.16
2023-01-07T17:43:14.510Z,100884.72
2023-01-07T17:45:42.852Z,100886.25
2023-01-07T17:48:16.356Z,100873.41
2023-01-07T17:50:45.717Z,100878.84
2023-01-07T17:53:21.389Z,100874.81
2023-01-07T17:55:49.537Z,100873.56
2023-01-07T17:58:26.289Z,100879.13
2023-01-07T18:00:55.344Z,100871.56
2023-01-07T18:03:27.571Z,100877.56
2023-01-07T18:05:58.146Z,100871.88
2023-01-07T18:08:27.066Z,100864.34
2023-01-07T18:11:15.687Z,100868.94
2023-01-07T18:13:44.182Z,100864.88
2023-01-07T18:16:14.766Z,100859.03
2023-01-07T18:18:44.654Z,100857.94
2023-01-07T18:21:15.958Z,100847.59
2023-01-07T18:23:46.026Z,100853.84
2023-01-07T18:26:15.068Z,100848.41
2023-01-07T18:28:44.047Z,100846.03
2023-01-07T18:31:12.125Z,100845.06
2023-01-07T18:33:42.187Z,100833.22
2023-01-07T18:36:12.757Z,100840.88
2023-01-07T18:38:42.745Z,100838.78
2023-01-07T18:41:11.675Z,100841.03
2023-01-07T18:43:40.556Z,100835.03
2023-01-07T18:46:11.879Z,100826.38
2023-01-07T18:48:39.987Z,100833.34
2023-01-07T18:51:12.123Z,100832.78
2023-01-07T18:53:40.879Z,100832.53
2023-01-07T18:56:11.777Z,100826.38
2023-01-07T18:58:41.238Z,100821.63
2023-01-07T19:01:11.461Z,100814.78
2023-01-07T19:03:40.077Z,100807.94
2023-01-07T19:06:13.827Z,100806.69
2023-01-07T19:08:44.731Z,100803.22
2023-01-07T19:11:14.693Z,100799.84
2023-01-07T19:13:43.548Z,100800.69
2023-01-07T19:16:16.458Z,100800.41
2023-01-07T19:18:44.459Z,100789.22
2023-01-07T19:21:16.620Z,100794.53
2023-01-07T19:23:44.952Z,100791.19
2023-01-07T19:26:13.525Z,100794.69
2023-01-07T19:28:41.744Z,100792.44
2023-01-07T19:31:12.131Z,100784.22
2023-01-07T19:33:40.883Z,100786.72
2023-01-07T19:36:11.077Z,100776.25
2023-01-07T19:38:45.004Z,100758.78
2023-01-07T19:41:15.796Z,100774.44
2023-01-07T19:43:45.946Z,100763.84
2023-01-07T19:46:15.757Z,100754.91
2023-01-07T19:48:45.048Z,100750.00
2023-01-07T19:51:14.691Z,100739.00
2023-01-07T19:53:47.766Z,100739.00
2023-01-07T19:56:15.717Z,100742.09
2023-01-07T19:58:43.967Z,100739.69
2023-01-07T20:01:15.702Z,100752.69
2023-01-07T20:03:45.414Z,100730.34
2023-01-07T20:06:15.922Z,100740.97
2023-01-07T20:08:45.994Z,100737.03
2023-01-07T20:11:15.858Z,100727.56
2023-01-07T20:13:46.168Z,100729.22
2023-01-07T20:16:16.960Z,100730.91
2023-01-07T20:18:46.705Z,100717.38
2023-01-07T20:21:16.314Z,100717.22
2023-01-07T20:23:46.530Z,100717.63
2023-01-07T20:26:17.413Z,100710.84
2023-01-07T20:28:47.196Z,100719.78
2023-01-07T20:31:17.665Z,100716.00
2023-01-07T20:33:47.854Z,100716.69
2023-01-07T20:36:17.836Z,100709.81
2023-01-07T20:38:47.892Z,100709.28
2023-01-07T20:41:19.615Z,100706.66
2023-01-07T20:43:51.659Z,100710.13
2023-01-07T20:46:21.485Z,100709.00
2023-01-07T20:48:49.794Z,100699.06
2023-01-07T20:51:21.489Z,100702.75
2023-01-07T20:53:52.403Z,100690.72
2023-01-07T20:56:23.009Z,100686.25
2023-01-07T20:58:51.536Z,100678.44
2023-01-07T21:01:21.704Z,100677.59
2023-01-07T21:03:50.380Z,100671.63
2023-01-07T21:06:20.405Z,100673.28
2023-01-07T21:08:49.918Z,100673.72
2023-01-07T21:11:21.491Z,100675.94
2023-01-07T21:13:50.437Z,100668.97
2023-01-07T21:16:20.221Z,100663.41
2023-01-07T21:18:50.920Z,100653.34
2023-01-07T21:21:22.090Z,100648.44
2023-01-07T21:23:50.426Z,100648.06
2023-01-07T21:26:19.876Z,100644.03
2023-01-07T21:28:49.072Z,100633.81
2023-01-07T21:31:17.849Z,100640.25
2023-01-07T21:33:47.660Z,100634.41
2023-01-07T21:36:20.074Z,100634.09
2023-01-07T21:38:48.566Z,100637.19
2023-01-07T21:41:17.666Z,100638.03
2023-01-07T21:43:47.237Z,100634.09
2023-01-07T21:46:18.914Z,100630.50
2023-01-07T21:48:47.365Z,100624.38
2023-01-07T21:51:18.541Z,100628.25
2023-01-07T21:53:47.443Z,100629.78
2023-01-07T21:56:17.669Z,100634.13
2023-01-07T21:58:48.408Z,100630.06
2023-01-07T22:01:17.647Z,100633.00
2023-01-07T22:03:47.456Z,100630.91
2023-01-07T22:06:20.420Z,100616.81
2023-01-07T22:08:48.911Z,100617.66
2023-01-07T22:11:19.421Z,100614.03
2023-01-07T22:13:52.034Z,100615.44
2023-01-07T22:16:20.811Z,100621.72
2023-01-07T22:18:49.321Z,100620.16
2023-01-07T22:21:18.089Z,100610.16
2023-01-07T22:23:47.033Z,100608.47
2023-01-07T22:26:16.938Z,100600.38
2023-01-07T22:28:47.638Z,100609.59
2023-01-07T22:31:20.714Z,100605.97
2023-01-07T22:33:48.917Z,100598.72
2023-01-07T22:36:21.409Z,100587.41
2023-01-07T22:38:49.912Z,100582.38
2023-01-07T22:41:18.115Z,100582.53
2023-01-07T22:43:46.445Z,100579.59
2023-01-07T22:46:20.824Z,100580.31
2023-01-07T22:48:49.740Z,100577.84
2023-01-07T22:51:21.439Z,100579.78
2023-01-07T22:53:50.640Z,100577.94
2023-01-07T22:56:19.106Z,100575.59
2023-01-07T22:58:47.375Z,100579.47
2023-01-07T23:01:16.298Z,100562.88
2023-01-07T23:03:46.097Z,100568.38
2023-01-07T23:06:15.787Z,100564.88
2023-01-07T23:08:44.523Z,100568.34
2023-01-07T23:11:33.995Z,100564.16
2023-01-07T23:14:02.716Z,100571.56
2023-01-07T23:16:32.152Z,100560.53
2023-01-07T23:19:01.605Z,100558.44
2023-01-07T23:21:31.520Z,100558.84
2023-01-07T23:24:00.162Z,100552.00
2023-01-07T23:26:28.237Z,100550.19
2023-01-07T23:28:56.323Z,100545.34
2023-01-07T23:31:24.870Z,100547.44
2023-01-07T23:33:54.970Z,100535.72
2023-01-07T23:36:24.573Z,100543.81
2023-01-07T23:38:54.219Z,100540.47
2023-01-07T23:41:23.405Z,100533.66
2023-01-07T23:43:51.764Z,100536.69
2023-01-07T23:46:20.291Z,100530.16
2023-01-07T23:48:48.433Z,100521.78
2023-01-07T23:51:17.851Z,100522.06
2023-01-07T23:53:47.748Z,100523.75
2023-01-07T23:56:18.423Z,100518.84
2023-01-07T23:58:46.956Z,100513.03
